sensor_id;sensor_type;location;lat;lon;timestamp;temperature;humidity
20829;DHT22;10575;50.124;8.582;2022-08-26T00:01:30;24.40;73.60
20829;DHT22;10575;50.124;8.582;2022-08-26T00:03:56;24.40;74.90
20829;DHT22;10575;50.124;8.582;2022-08-26T00:06:24;24.40;74.40
20829;DHT22;10575;50.124;8.582;2022-08-26T00:08:50;24.50;74.70
20829;DHT22;10575;50.124;8.582;2022-08-26T00:11:16;24.40;75.40
20829;DHT22;10575;50.124;8.582;2022-08-26T00:13:42;24.30;75.80
20829;DHT22;10575;50.124;8.582;2022-08-26T00:16:08;24.30;75.40
20829;DHT22;10575;50.124;8.582;2022-08-26T00:18:35;24.30;75.90
20829;DHT22;10575;50.124;8.582;2022-08-26T00:21:01;24.30;76.20
20829;DHT22;10575;50.124;8.582;2022-08-26T00:23:27;24.10;77.60
20829;DHT22;10575;50.124;8.582;2022-08-26T00:25:52;24.00;78.20
20829;DHT22;10575;50.124;8.582;2022-08-26T00:28:18;24.00;78.80
20829;DHT22;10575;50.124;8.582;2022-08-26T00:30:44;23.90;79.00
20829;DHT22;10575;50.124;8.582;2022-08-26T00:33:12;23.90;80.20
20829;DHT22;10575;50.124;8.582;2022-08-26T00:35:38;23.90;80.50
20829;DHT22;10575;50.124;8.582;2022-08-26T00:38:04;24.00;80.20
20829;DHT22;10575;50.124;8.582;2022-08-26T00:40:36;23.80;80.80
20829;DHT22;10575;50.124;8.582;2022-08-26T00:43:03;23.70;82.10
20829;DHT22;10575;50.124;8.582;2022-08-26T00:45:47;23.60;82.80
20829;DHT22;10575;50.124;8.582;2022-08-26T00:48:15;23.50;83.80
20829;DHT22;10575;50.124;8.582;2022-08-26T00:51:05;23.40;84.80
20829;DHT22;10575;50.124;8.582;2022-08-26T00:53:36;23.60;84.70
20829;DHT22;10575;50.124;8.582;2022-08-26T00:56:09;23.70;84.10
20829;DHT22;10575;50.124;8.582;2022-08-26T00:58:38;23.80;83.80
20829;DHT22;10575;50.124;8.582;2022-08-26T01:01:08;23.80;84.90
20829;DHT22;10575;50.124;8.582;2022-08-26T01:03:35;23.70;85.30
20829;DHT22;10575;50.124;8.582;2022-08-26T01:06:02;23.70;85.80
20829;DHT22;10575;50.124;8.582;2022-08-26T01:08:28;23.70;85.80
20829;DHT22;10575;50.124;8.582;2022-08-26T01:10:54;23.80;85.40
20829;DHT22;10575;50.124;8.582;2022-08-26T01:13:21;23.80;85.20
20829;DHT22;10575;50.124;8.582;2022-08-26T01:15:48;23.80;84.70
20829;DHT22;10575;50.124;8.582;2022-08-26T01:18:16;23.70;83.90
20829;DHT22;10575;50.124;8.582;2022-08-26T01:23:47;23.30;86.70
20829;DHT22;10575;50.124;8.582;2022-08-26T01:26:17;23.20;86.90
20829;DHT22;10575;50.124;8.582;2022-08-26T01:28:45;23.10;88.60
20829;DHT22;10575;50.124;8.582;2022-08-26T01:31:14;23.10;90.30
20829;DHT22;10575;50.124;8.582;2022-08-26T01:34:04;23.00;90.30
20829;DHT22;10575;50.124;8.582;2022-08-26T01:36:31;23.00;90.20
20829;DHT22;10575;50.124;8.582;2022-08-26T01:38:57;23.20;90.10
20829;DHT22;10575;50.124;8.582;2022-08-26T01:41:23;23.30;89.50
20829;DHT22;10575;50.124;8.582;2022-08-26T01:43:52;23.40;88.60
20829;DHT22;10575;50.124;8.582;2022-08-26T01:46:19;23.40;89.50
20829;DHT22;10575;50.124;8.582;2022-08-26T01:48:47;23.40;89.70
20829;DHT22;10575;50.124;8.582;2022-08-26T01:51:14;23.30;89.70
20829;DHT22;10575;50.124;8.582;2022-08-26T01:53:41;23.20;90.60
20829;DHT22;10575;50.124;8.582;2022-08-26T01:56:09;23.10;90.40
20829;DHT22;10575;50.124;8.582;2022-08-26T01:58:41;23.10;90.70
20829;DHT22;10575;50.124;8.582;2022-08-26T02:01:07;23.00;90.50
20829;DHT22;10575;50.124;8.582;2022-08-26T02:03:35;22.90;91.10
20829;DHT22;10575;50.124;8.582;2022-08-26T02:06:05;22.80;91.10
20829;DHT22;10575;50.124;8.582;2022-08-26T02:08:40;22.70;91.60
20829;DHT22;10575;50.124;8.582;2022-08-26T02:11:06;22.80;91.70
20829;DHT22;10575;50.124;8.582;2022-08-26T02:13:34;22.90;91.90
20829;DHT22;10575;50.124;8.582;2022-08-26T02:16:02;22.90;91.90
20829;DHT22;10575;50.124;8.582;2022-08-26T02:18:30;22.90;92.20
20829;DHT22;10575;50.124;8.582;2022-08-26T02:20:57;23.00;92.30
20829;DHT22;10575;50.124;8.582;2022-08-26T02:23:23;23.00;92.30
20829;DHT22;10575;50.124;8.582;2022-08-26T02:26:06;22.90;92.40
20829;DHT22;10575;50.124;8.582;2022-08-26T02:28:38;22.80;92.70
20829;DHT22;10575;50.124;8.582;2022-08-26T02:31:05;22.60;92.90
20829;DHT22;10575;50.124;8.582;2022-08-26T02:33:30;22.50;93.40
20829;DHT22;10575;50.124;8.582;2022-08-26T02:35:56;22.40;93.60
20829;DHT22;10575;50.124;8.582;2022-08-26T02:38:22;22.40;93.90
20829;DHT22;10575;50.124;8.582;2022-08-26T02:40:48;22.30;94.20
20829;DHT22;10575;50.124;8.582;2022-08-26T02:43:13;22.30;94.20
20829;DHT22;10575;50.124;8.582;2022-08-26T02:45:39;22.30;94.60
20829;DHT22;10575;50.124;8.582;2022-08-26T02:48:11;22.30;94.70
20829;DHT22;10575;50.124;8.582;2022-08-26T02:50:37;22.20;95.10
20829;DHT22;10575;50.124;8.582;2022-08-26T02:53:04;22.20;95.30
20829;DHT22;10575;50.124;8.582;2022-08-26T02:55:30;22.20;95.40
20829;DHT22;10575;50.124;8.582;2022-08-26T02:57:56;22.20;95.70
20829;DHT22;10575;50.124;8.582;2022-08-26T03:00:22;22.30;95.50
20829;DHT22;10575;50.124;8.582;2022-08-26T03:02:48;22.30;95.60
20829;DHT22;10575;50.124;8.582;2022-08-26T03:05:14;22.30;95.70
20829;DHT22;10575;50.124;8.582;2022-08-26T03:07:41;22.50;95.40
20829;DHT22;10575;50.124;8.582;2022-08-26T03:10:07;22.60;95.10
20829;DHT22;10575;50.124;8.582;2022-08-26T03:12:33;22.70;94.60
20829;DHT22;10575;50.124;8.582;2022-08-26T03:14:59;22.80;94.50
20829;DHT22;10575;50.124;8.582;2022-08-26T03:17:24;22.80;94.50
20829;DHT22;10575;50.124;8.582;2022-08-26T03:19:50;22.70;94.70
20829;DHT22;10575;50.124;8.582;2022-08-26T03:22:15;22.60;94.90
20829;DHT22;10575;50.124;8.582;2022-08-26T03:24:41;22.70;94.80
20829;DHT22;10575;50.124;8.582;2022-08-26T03:27:06;22.90;94.60
20829;DHT22;10575;50.124;8.582;2022-08-26T03:29:32;22.90;94.40
20829;DHT22;10575;50.124;8.582;2022-08-26T03:32:16;23.00;94.30
20829;DHT22;10575;50.124;8.582;2022-08-26T03:34:42;23.00;94.00
20829;DHT22;10575;50.124;8.582;2022-08-26T03:37:07;22.90;94.20
20829;DHT22;10575;50.124;8.582;2022-08-26T03:39:33;23.00;94.30
20829;DHT22;10575;50.124;8.582;2022-08-26T03:41:58;23.00;94.30
20829;DHT22;10575;50.124;8.582;2022-08-26T03:44:24;22.90;94.20
20829;DHT22;10575;50.124;8.582;2022-08-26T03:46:50;23.00;94.40
20829;DHT22;10575;50.124;8.582;2022-08-26T03:49:16;23.00;94.20
20829;DHT22;10575;50.124;8.582;2022-08-26T03:51:41;22.90;94.40
20829;DHT22;10575;50.124;8.582;2022-08-26T03:54:07;22.80;94.40
20829;DHT22;10575;50.124;8.582;2022-08-26T03:56:33;22.90;94.80
20829;DHT22;10575;50.124;8.582;2022-08-26T03:58:59;22.70;95.60
20829;DHT22;10575;50.124;8.582;2022-08-26T04:01:25;22.70;95.70
20829;DHT22;10575;50.124;8.582;2022-08-26T04:03:52;22.70;95.60
20829;DHT22;10575;50.124;8.582;2022-08-26T04:06:35;22.70;95.70
20829;DHT22;10575;50.124;8.582;2022-08-26T04:09:05;22.70;95.50
20829;DHT22;10575;50.124;8.582;2022-08-26T04:11:32;22.70;95.60
20829;DHT22;10575;50.124;8.582;2022-08-26T04:13:58;22.60;96.00
20829;DHT22;10575;50.124;8.582;2022-08-26T04:16:26;22.50;96.50
20829;DHT22;10575;50.124;8.582;2022-08-26T04:18:52;22.60;96.30
20829;DHT22;10575;50.124;8.582;2022-08-26T04:21:17;22.70;96.20
20829;DHT22;10575;50.124;8.582;2022-08-26T04:23:43;22.80;95.80
20829;DHT22;10575;50.124;8.582;2022-08-26T04:26:08;22.80;95.70
20829;DHT22;10575;50.124;8.582;2022-08-26T04:28:34;22.80;95.90
20829;DHT22;10575;50.124;8.582;2022-08-26T04:31:00;22.60;96.70
20829;DHT22;10575;50.124;8.582;2022-08-26T04:33:26;22.60;96.90
20829;DHT22;10575;50.124;8.582;2022-08-26T04:36:03;22.70;96.90
20829;DHT22;10575;50.124;8.582;2022-08-26T04:38:29;22.70;96.90
20829;DHT22;10575;50.124;8.582;2022-08-26T04:40:55;22.70;97.10
20829;DHT22;10575;50.124;8.582;2022-08-26T04:43:22;22.70;97.30
20829;DHT22;10575;50.124;8.582;2022-08-26T04:45:47;22.80;97.10
20829;DHT22;10575;50.124;8.582;2022-08-26T04:48:13;22.80;97.20
20829;DHT22;10575;50.124;8.582;2022-08-26T04:50:39;22.90;97.00
20829;DHT22;10575;50.124;8.582;2022-08-26T04:53:05;23.10;96.80
20829;DHT22;10575;50.124;8.582;2022-08-26T04:55:30;23.20;96.40
20829;DHT22;10575;50.124;8.582;2022-08-26T04:57:56;23.20;96.00
20829;DHT22;10575;50.124;8.582;2022-08-26T05:00:22;23.30;95.70
20829;DHT22;10575;50.124;8.582;2022-08-26T05:02:47;23.40;95.70
20829;DHT22;10575;50.124;8.582;2022-08-26T05:05:13;23.40;95.40
20829;DHT22;10575;50.124;8.582;2022-08-26T05:07:39;23.30;95.80
20829;DHT22;10575;50.124;8.582;2022-08-26T05:10:06;23.10;96.30
20829;DHT22;10575;50.124;8.582;2022-08-26T05:12:32;23.10;96.50
20829;DHT22;10575;50.124;8.582;2022-08-26T05:14:57;23.10;96.40
20829;DHT22;10575;50.124;8.582;2022-08-26T05:17:24;23.00;97.00
20829;DHT22;10575;50.124;8.582;2022-08-26T05:19:50;22.90;97.40
20829;DHT22;10575;50.124;8.582;2022-08-26T05:22:15;23.00;97.30
20829;DHT22;10575;50.124;8.582;2022-08-26T05:24:41;23.00;97.40
20829;DHT22;10575;50.124;8.582;2022-08-26T05:27:08;22.90;97.50
20829;DHT22;10575;50.124;8.582;2022-08-26T05:29:33;22.90;97.80
20829;DHT22;10575;50.124;8.582;2022-08-26T05:31:59;23.00;97.60
20829;DHT22;10575;50.124;8.582;2022-08-26T05:34:26;23.00;97.60
20829;DHT22;10575;50.124;8.582;2022-08-26T05:36:51;23.00;97.70
20829;DHT22;10575;50.124;8.582;2022-08-26T05:39:17;23.00;97.70
20829;DHT22;10575;50.124;8.582;2022-08-26T05:41:43;23.10;97.50
20829;DHT22;10575;50.124;8.582;2022-08-26T05:44:11;23.10;97.50
20829;DHT22;10575;50.124;8.582;2022-08-26T05:46:38;23.20;97.40
20829;DHT22;10575;50.124;8.582;2022-08-26T05:49:05;23.10;97.60
20829;DHT22;10575;50.124;8.582;2022-08-26T05:51:31;23.20;97.60
20829;DHT22;10575;50.124;8.582;2022-08-26T05:54:01;23.30;97.10
20829;DHT22;10575;50.124;8.582;2022-08-26T05:56:26;23.20;97.40
20829;DHT22;10575;50.124;8.582;2022-08-26T05:58:53;23.20;97.30
20829;DHT22;10575;50.124;8.582;2022-08-26T06:01:21;23.20;97.30
20829;DHT22;10575;50.124;8.582;2022-08-26T06:03:50;23.30;97.90
20829;DHT22;10575;50.124;8.582;2022-08-26T06:06:19;23.70;96.40
20829;DHT22;10575;50.124;8.582;2022-08-26T06:08:45;24.00;95.90
20829;DHT22;10575;50.124;8.582;2022-08-26T06:11:13;24.60;94.70
20829;DHT22;10575;50.124;8.582;2022-08-26T06:13:40;25.00;94.10
20829;DHT22;10575;50.124;8.582;2022-08-26T06:16:14;25.30;93.40
20829;DHT22;10575;50.124;8.582;2022-08-26T06:18:42;25.40;91.70
20829;DHT22;10575;50.124;8.582;2022-08-26T06:23:49;25.90;91.40
20829;DHT22;10575;50.124;8.582;2022-08-26T06:26:33;26.10;90.00
20829;DHT22;10575;50.124;8.582;2022-08-26T06:29:00;26.20;89.00
20829;DHT22;10575;50.124;8.582;2022-08-26T06:31:26;26.20;88.10
20829;DHT22;10575;50.124;8.582;2022-08-26T06:33:52;25.90;90.90
20829;DHT22;10575;50.124;8.582;2022-08-26T06:36:23;25.50;91.80
20829;DHT22;10575;50.124;8.582;2022-08-26T06:38:50;25.30;92.40
20829;DHT22;10575;50.124;8.582;2022-08-26T06:41:17;25.20;93.10
20829;DHT22;10575;50.124;8.582;2022-08-26T06:43:45;25.10;93.50
20829;DHT22;10575;50.124;8.582;2022-08-26T06:46:12;25.20;93.40
20829;DHT22;10575;50.124;8.582;2022-08-26T06:48:38;25.60;92.30
20829;DHT22;10575;50.124;8.582;2022-08-26T06:51:10;26.10;91.10
20829;DHT22;10575;50.124;8.582;2022-08-26T06:53:38;26.70;89.50
20829;DHT22;10575;50.124;8.582;2022-08-26T06:56:07;27.30;85.40
20829;DHT22;10575;50.124;8.582;2022-08-26T06:58:34;28.00;81.70
20829;DHT22;10575;50.124;8.582;2022-08-26T07:01:00;28.60;77.80
20829;DHT22;10575;50.124;8.582;2022-08-26T07:03:26;29.10;76.30
20829;DHT22;10575;50.124;8.582;2022-08-26T07:05:51;29.60;75.00
20829;DHT22;10575;50.124;8.582;2022-08-26T07:08:17;30.10;69.80
20829;DHT22;10575;50.124;8.582;2022-08-26T07:10:42;30.50;67.90
20829;DHT22;10575;50.124;8.582;2022-08-26T07:13:09;31.10;65.60
20829;DHT22;10575;50.124;8.582;2022-08-26T07:15:38;31.90;63.90
20829;DHT22;10575;50.124;8.582;2022-08-26T07:18:04;32.60;60.00
20829;DHT22;10575;50.124;8.582;2022-08-26T07:20:31;33.40;56.70
20829;DHT22;10575;50.124;8.582;2022-08-26T07:22:56;34.30;53.70
20829;DHT22;10575;50.124;8.582;2022-08-26T07:25:23;34.70;52.20
20829;DHT22;10575;50.124;8.582;2022-08-26T07:27:49;35.20;51.50
20829;DHT22;10575;50.124;8.582;2022-08-26T07:30:14;35.20;50.00
20829;DHT22;10575;50.124;8.582;2022-08-26T07:32:40;34.60;51.10
20829;DHT22;10575;50.124;8.582;2022-08-26T07:35:06;34.80;51.00
20829;DHT22;10575;50.124;8.582;2022-08-26T07:37:32;36.10;49.30
20829;DHT22;10575;50.124;8.582;2022-08-26T07:39:57;37.50;46.40
20829;DHT22;10575;50.124;8.582;2022-08-26T07:42:23;39.10;43.60
20829;DHT22;10575;50.124;8.582;2022-08-26T07:44:49;41.30;40.70
20829;DHT22;10575;50.124;8.582;2022-08-26T07:47:15;43.20;36.10
20829;DHT22;10575;50.124;8.582;2022-08-26T07:49:41;44.40;33.40
20829;DHT22;10575;50.124;8.582;2022-08-26T07:52:07;44.70;32.20
20829;DHT22;10575;50.124;8.582;2022-08-26T07:54:33;44.70;32.70
20829;DHT22;10575;50.124;8.582;2022-08-26T07:57:00;45.80;31.70
20829;DHT22;10575;50.124;8.582;2022-08-26T07:59:26;46.70;29.40
20829;DHT22;10575;50.124;8.582;2022-08-26T08:01:51;47.10;29.40
20829;DHT22;10575;50.124;8.582;2022-08-26T08:04:18;47.50;29.50
20829;DHT22;10575;50.124;8.582;2022-08-26T08:06:44;48.60;28.20
20829;DHT22;10575;50.124;8.582;2022-08-26T08:09:11;50.00;27.10
20829;DHT22;10575;50.124;8.582;2022-08-26T08:11:37;49.70;26.60
20829;DHT22;10575;50.124;8.582;2022-08-26T08:14:03;48.60;27.10
20829;DHT22;10575;50.124;8.582;2022-08-26T08:16:32;49.20;27.60
20829;DHT22;10575;50.124;8.582;2022-08-26T08:18:59;50.80;25.50
20829;DHT22;10575;50.124;8.582;2022-08-26T08:21:25;50.70;25.70
20829;DHT22;10575;50.124;8.582;2022-08-26T08:23:55;51.70;24.90
20829;DHT22;10575;50.124;8.582;2022-08-26T08:26:22;51.80;24.90
20829;DHT22;10575;50.124;8.582;2022-08-26T08:28:48;52.60;23.90
20829;DHT22;10575;50.124;8.582;2022-08-26T08:31:19;54.10;22.90
20829;DHT22;10575;50.124;8.582;2022-08-26T08:33:45;54.40;22.70
20829;DHT22;10575;50.124;8.582;2022-08-26T08:36:11;54.70;22.40
20829;DHT22;10575;50.124;8.582;2022-08-26T08:38:39;54.50;22.40
20829;DHT22;10575;50.124;8.582;2022-08-26T08:41:11;53.20;23.00
20829;DHT22;10575;50.124;8.582;2022-08-26T08:43:40;52.80;23.80
20829;DHT22;10575;50.124;8.582;2022-08-26T08:46:15;52.40;24.00
20829;DHT22;10575;50.124;8.582;2022-08-26T08:48:43;52.90;24.30
20829;DHT22;10575;50.124;8.582;2022-08-26T08:51:20;52.60;23.90
20829;DHT22;10575;50.124;8.582;2022-08-26T08:53:49;52.10;24.00
20829;DHT22;10575;50.124;8.582;2022-08-26T08:59:14;53.00;23.80
20829;DHT22;10575;50.124;8.582;2022-08-26T09:04:39;54.00;22.50
20829;DHT22;10575;50.124;8.582;2022-08-26T09:07:18;54.00;22.70
20829;DHT22;10575;50.124;8.582;2022-08-26T09:09:58;54.40;22.10
20829;DHT22;10575;50.124;8.582;2022-08-26T09:12:30;54.50;22.10
20829;DHT22;10575;50.124;8.582;2022-08-26T09:15:06;54.40;22.50
20829;DHT22;10575;50.124;8.582;2022-08-26T09:20:34;50.20;24.90
20829;DHT22;10575;50.124;8.582;2022-08-26T09:23:01;47.50;27.20
20829;DHT22;10575;50.124;8.582;2022-08-26T09:25:26;44.40;29.60
20829;DHT22;10575;50.124;8.582;2022-08-26T09:27:52;42.90;31.50
20829;DHT22;10575;50.124;8.582;2022-08-26T09:30:31;40.80;35.30
20829;DHT22;10575;50.124;8.582;2022-08-26T09:33:06;39.40;37.60
20829;DHT22;10575;50.124;8.582;2022-08-26T09:35:35;38.30;39.40
20829;DHT22;10575;50.124;8.582;2022-08-26T09:38:01;38.00;40.00
20829;DHT22;10575;50.124;8.582;2022-08-26T09:40:57;37.90;40.20
20829;DHT22;10575;50.124;8.582;2022-08-26T09:43:22;37.50;40.90
20829;DHT22;10575;50.124;8.582;2022-08-26T09:45:51;37.60;41.10
20829;DHT22;10575;50.124;8.582;2022-08-26T09:48:32;37.70;41.10
20829;DHT22;10575;50.124;8.582;2022-08-26T09:51:04;37.80;40.90
20829;DHT22;10575;50.124;8.582;2022-08-26T09:53:33;37.60;41.60
20829;DHT22;10575;50.124;8.582;2022-08-26T09:56:14;36.70;42.80
20829;DHT22;10575;50.124;8.582;2022-08-26T09:58:44;35.90;44.30
20829;DHT22;10575;50.124;8.582;2022-08-26T10:01:32;35.80;44.90
20829;DHT22;10575;50.124;8.582;2022-08-26T10:04:12;35.80;44.80
20829;DHT22;10575;50.124;8.582;2022-08-26T10:07:02;35.40;46.20
20829;DHT22;10575;50.124;8.582;2022-08-26T10:09:33;35.50;45.80
20829;DHT22;10575;50.124;8.582;2022-08-26T10:12:04;35.70;45.40
20829;DHT22;10575;50.124;8.582;2022-08-26T10:14:34;35.90;45.30
20829;DHT22;10575;50.124;8.582;2022-08-26T10:19:39;36.20;43.40
20829;DHT22;10575;50.124;8.582;2022-08-26T10:22:32;35.90;45.00
20829;DHT22;10575;50.124;8.582;2022-08-26T10:25:03;35.80;45.50
20829;DHT22;10575;50.124;8.582;2022-08-26T10:27:41;35.30;46.10
20829;DHT22;10575;50.124;8.582;2022-08-26T10:30:12;34.90;46.90
20829;DHT22;10575;50.124;8.582;2022-08-26T10:32:47;34.80;47.80
20829;DHT22;10575;50.124;8.582;2022-08-26T10:35:16;34.60;48.00
20829;DHT22;10575;50.124;8.582;2022-08-26T10:37:53;34.60;48.50
20829;DHT22;10575;50.124;8.582;2022-08-26T10:43:24;35.00;48.20
20829;DHT22;10575;50.124;8.582;2022-08-26T10:46:12;35.20;48.30
20829;DHT22;10575;50.124;8.582;2022-08-26T10:51:33;35.40;48.30
20829;DHT22;10575;50.124;8.582;2022-08-26T10:54:10;35.50;48.00
20829;DHT22;10575;50.124;8.582;2022-08-26T10:56:51;35.70;47.00
20829;DHT22;10575;50.124;8.582;2022-08-26T10:59:37;35.50;47.60
20829;DHT22;10575;50.124;8.582;2022-08-26T11:09:55;34.60;49.80
20829;DHT22;10575;50.124;8.582;2022-08-26T11:12:47;34.30;50.50
20829;DHT22;10575;50.124;8.582;2022-08-26T11:18:03;33.90;50.50
20829;DHT22;10575;50.124;8.582;2022-08-26T11:20:36;33.70;51.10
20829;DHT22;10575;50.124;8.582;2022-08-26T11:28:47;33.10;52.40
20829;DHT22;10575;50.124;8.582;2022-08-26T11:33:53;32.90;52.90
20829;DHT22;10575;50.124;8.582;2022-08-26T11:39:27;32.50;53.70
20829;DHT22;10575;50.124;8.582;2022-08-26T11:41:55;32.30;53.70
20829;DHT22;10575;50.124;8.582;2022-08-26T11:44:35;32.30;54.40
20829;DHT22;10575;50.124;8.582;2022-08-26T11:47:02;32.00;54.60
20829;DHT22;10575;50.124;8.582;2022-08-26T11:49:29;32.00;54.80
20829;DHT22;10575;50.124;8.582;2022-08-26T11:52:17;31.80;55.30
20829;DHT22;10575;50.124;8.582;2022-08-26T11:55:09;31.70;55.40
20829;DHT22;10575;50.124;8.582;2022-08-26T11:57:42;31.70;55.60
20829;DHT22;10575;50.124;8.582;2022-08-26T12:00:10;32.00;55.50
20829;DHT22;10575;50.124;8.582;2022-08-26T12:02:39;32.10;55.50
20829;DHT22;10575;50.124;8.582;2022-08-26T12:05:06;32.10;55.80
20829;DHT22;10575;50.124;8.582;2022-08-26T12:07:32;32.20;55.60
20829;DHT22;10575;50.124;8.582;2022-08-26T12:10:00;32.30;55.20
20829;DHT22;10575;50.124;8.582;2022-08-26T12:12:34;32.40;54.90
20829;DHT22;10575;50.124;8.582;2022-08-26T12:15:18;32.30;54.70
20829;DHT22;10575;50.124;8.582;2022-08-26T12:17:46;32.30;54.80
20829;DHT22;10575;50.124;8.582;2022-08-26T12:20:31;32.30;54.90
20829;DHT22;10575;50.124;8.582;2022-08-26T12:23:23;32.40;55.10
20829;DHT22;10575;50.124;8.582;2022-08-26T12:25:50;32.40;55.60
20829;DHT22;10575;50.124;8.582;2022-08-26T12:28:17;32.70;54.50
20829;DHT22;10575;50.124;8.582;2022-08-26T12:31:03;33.00;54.00
20829;DHT22;10575;50.124;8.582;2022-08-26T12:33:31;33.30;53.90
20829;DHT22;10575;50.124;8.582;2022-08-26T12:35:58;33.30;53.70
20829;DHT22;10575;50.124;8.582;2022-08-26T12:38:26;33.50;53.00
20829;DHT22;10575;50.124;8.582;2022-08-26T12:40:52;33.50;53.50
20829;DHT22;10575;50.124;8.582;2022-08-26T12:43:42;33.80;53.70
20829;DHT22;10575;50.124;8.582;2022-08-26T12:46:11;34.20;53.00
20829;DHT22;10575;50.124;8.582;2022-08-26T12:48:40;34.70;51.60
20829;DHT22;10575;50.124;8.582;2022-08-26T12:51:18;34.90;50.40
20829;DHT22;10575;50.124;8.582;2022-08-26T12:53:44;35.10;49.40
20829;DHT22;10575;50.124;8.582;2022-08-26T12:56:28;35.10;49.50
20829;DHT22;10575;50.124;8.582;2022-08-26T12:59:22;34.70;48.20
20829;DHT22;10575;50.124;8.582;2022-08-26T13:01:49;34.80;49.20
20829;DHT22;10575;50.124;8.582;2022-08-26T13:04:38;35.20;47.00
20829;DHT22;10575;50.124;8.582;2022-08-26T13:07:23;35.10;46.40
20829;DHT22;10575;50.124;8.582;2022-08-26T13:09:52;34.80;47.40
20829;DHT22;10575;50.124;8.582;2022-08-26T13:12:36;34.70;48.00
20829;DHT22;10575;50.124;8.582;2022-08-26T13:15:05;34.80;48.40
20829;DHT22;10575;50.124;8.582;2022-08-26T13:17:31;34.50;47.00
20829;DHT22;10575;50.124;8.582;2022-08-26T13:19:58;34.30;48.00
20829;DHT22;10575;50.124;8.582;2022-08-26T13:22:25;34.70;46.70
20829;DHT22;10575;50.124;8.582;2022-08-26T13:24:54;34.90;45.80
20829;DHT22;10575;50.124;8.582;2022-08-26T13:27:22;35.10;45.30
20829;DHT22;10575;50.124;8.582;2022-08-26T13:29:49;35.10;46.40
20829;DHT22;10575;50.124;8.582;2022-08-26T13:32:15;34.90;46.50
20829;DHT22;10575;50.124;8.582;2022-08-26T13:34:43;34.50;46.10
20829;DHT22;10575;50.124;8.582;2022-08-26T13:37:10;34.40;48.00
20829;DHT22;10575;50.124;8.582;2022-08-26T13:39:35;34.40;46.50
20829;DHT22;10575;50.124;8.582;2022-08-26T13:42:02;34.20;47.10
20829;DHT22;10575;50.124;8.582;2022-08-26T13:44:32;34.00;47.40
20829;DHT22;10575;50.124;8.582;2022-08-26T13:47:03;33.80;48.00
20829;DHT22;10575;50.124;8.582;2022-08-26T13:49:29;33.70;49.60
20829;DHT22;10575;50.124;8.582;2022-08-26T13:51:54;33.70;53.40
20829;DHT22;10575;50.124;8.582;2022-08-26T13:54:20;33.50;56.20
20829;DHT22;10575;50.124;8.582;2022-08-26T13:56:46;33.40;58.00
20829;DHT22;10575;50.124;8.582;2022-08-26T13:59:11;33.20;62.90
20829;DHT22;10575;50.124;8.582;2022-08-26T14:01:37;32.20;66.50
20829;DHT22;10575;50.124;8.582;2022-08-26T14:04:04;31.00;70.50
20829;DHT22;10575;50.124;8.582;2022-08-26T14:06:30;30.30;76.40
20829;DHT22;10575;50.124;8.582;2022-08-26T14:08:57;29.70;83.80
20829;DHT22;10575;50.124;8.582;2022-08-26T14:11:23;29.20;88.10
20829;DHT22;10575;50.124;8.582;2022-08-26T14:13:49;29.10;91.10
20829;DHT22;10575;50.124;8.582;2022-08-26T14:16:22;29.00;93.10
20829;DHT22;10575;50.124;8.582;2022-08-26T14:18:49;28.90;95.40
20829;DHT22;10575;50.124;8.582;2022-08-26T14:21:15;29.00;97.50
20829;DHT22;10575;50.124;8.582;2022-08-26T14:23:40;29.00;96.00
20829;DHT22;10575;50.124;8.582;2022-08-26T14:26:06;28.90;97.80
20829;DHT22;10575;50.124;8.582;2022-08-26T14:28:35;29.10;98.90
20829;DHT22;10575;50.124;8.582;2022-08-26T14:31:01;29.00;99.90
20829;DHT22;10575;50.124;8.582;2022-08-26T14:33:29;28.80;99.90
20829;DHT22;10575;50.124;8.582;2022-08-26T14:35:56;28.60;96.80
20829;DHT22;10575;50.124;8.582;2022-08-26T14:38:42;28.60;98.10
20829;DHT22;10575;50.124;8.582;2022-08-26T14:41:08;28.80;98.10
20829;DHT22;10575;50.124;8.582;2022-08-26T14:43:34;28.80;98.70
20829;DHT22;10575;50.124;8.582;2022-08-26T14:46:00;28.70;99.80
20829;DHT22;10575;50.124;8.582;2022-08-26T14:48:26;28.80;99.90
20829;DHT22;10575;50.124;8.582;2022-08-26T14:50:52;28.90;99.90
20829;DHT22;10575;50.124;8.582;2022-08-26T14:53:17;28.60;99.90
20829;DHT22;10575;50.124;8.582;2022-08-26T14:56:01;28.50;99.90
20829;DHT22;10575;50.124;8.582;2022-08-26T14:58:28;28.60;99.90
20829;DHT22;10575;50.124;8.582;2022-08-26T15:00:53;28.70;99.90
20829;DHT22;10575;50.124;8.582;2022-08-26T15:03:19;28.70;99.90
20829;DHT22;10575;50.124;8.582;2022-08-26T15:05:44;28.70;99.90
20829;DHT22;10575;50.124;8.582;2022-08-26T15:08:11;28.80;99.90
20829;DHT22;10575;50.124;8.582;2022-08-26T15:10:37;28.90;99.90
20829;DHT22;10575;50.124;8.582;2022-08-26T15:13:03;29.00;99.90
20829;DHT22;10575;50.124;8.582;2022-08-26T15:15:28;29.10;99.90
20829;DHT22;10575;50.124;8.582;2022-08-26T15:17:55;29.10;99.90
20829;DHT22;10575;50.124;8.582;2022-08-26T15:20:20;29.30;99.90
20829;DHT22;10575;50.124;8.582;2022-08-26T15:22:46;29.40;99.90
20829;DHT22;10575;50.124;8.582;2022-08-26T15:25:12;29.20;99.90
20829;DHT22;10575;50.124;8.582;2022-08-26T15:27:38;29.30;99.90
20829;DHT22;10575;50.124;8.582;2022-08-26T15:30:08;29.50;99.90
20829;DHT22;10575;50.124;8.582;2022-08-26T15:32:34;29.50;99.90
20829;DHT22;10575;50.124;8.582;2022-08-26T15:34:59;29.60;99.90
20829;DHT22;10575;50.124;8.582;2022-08-26T15:37:25;29.70;99.90
20829;DHT22;10575;50.124;8.582;2022-08-26T15:39:50;29.70;98.40
20829;DHT22;10575;50.124;8.582;2022-08-26T15:42:17;29.70;99.50
20829;DHT22;10575;50.124;8.582;2022-08-26T15:44:43;29.60;99.20
20829;DHT22;10575;50.124;8.582;2022-08-26T15:47:10;29.50;99.50
20829;DHT22;10575;50.124;8.582;2022-08-26T15:49:35;29.50;99.00
20829;DHT22;10575;50.124;8.582;2022-08-26T15:52:01;29.40;99.30
20829;DHT22;10575;50.124;8.582;2022-08-26T15:54:27;29.40;99.60
20829;DHT22;10575;50.124;8.582;2022-08-26T15:56:52;29.50;99.60
20829;DHT22;10575;50.124;8.582;2022-08-26T15:59:20;29.70;98.40
20829;DHT22;10575;50.124;8.582;2022-08-26T16:01:45;29.90;97.70
20829;DHT22;10575;50.124;8.582;2022-08-26T16:04:12;29.80;96.40
20829;DHT22;10575;50.124;8.582;2022-08-26T16:06:39;29.80;96.30
20829;DHT22;10575;50.124;8.582;2022-08-26T16:09:06;29.70;96.00
20829;DHT22;10575;50.124;8.582;2022-08-26T16:11:33;29.40;94.90
20829;DHT22;10575;50.124;8.582;2022-08-26T16:13:58;29.50;94.90
20829;DHT22;10575;50.124;8.582;2022-08-26T16:16:24;29.60;94.60
20829;DHT22;10575;50.124;8.582;2022-08-26T16:18:50;29.60;94.60
20829;DHT22;10575;50.124;8.582;2022-08-26T16:21:19;29.50;95.50
20829;DHT22;10575;50.124;8.582;2022-08-26T16:23:45;29.40;95.40
20829;DHT22;10575;50.124;8.582;2022-08-26T16:26:14;29.70;95.20